sensor_id;sensor_type;location;lat;lon;timestamp;temperature;humidity
14095;DHT22;18096;48.142;16.290;2022-12-18T00:01:04;1.10;99.90
14095;DHT22;18096;48.142;16.290;2022-12-18T00:03:33;1.10;99.90
14095;DHT22;18096;48.142;16.290;2022-12-18T00:05:59;1.10;99.90
14095;DHT22;18096;48.142;16.290;2022-12-18T00:08:25;1.10;99.90
14095;DHT22;18096;48.142;16.290;2022-12-18T00:10:50;1.10;99.80
14095;DHT22;18096;48.142;16.290;2022-12-18T00:13:16;1.10;99.90
14095;DHT22;18096;48.142;16.290;2022-12-18T00:15:42;1.10;99.90
14095;DHT22;18096;48.142;16.290;2022-12-18T00:18:08;1.00;99.90
14095;DHT22;18096;48.142;16.290;2022-12-18T00:20:38;1.10;99.90
14095;DHT22;18096;48.142;16.290;2022-12-18T00:23:05;1.00;99.90
14095;DHT22;18096;48.142;16.290;2022-12-18T00:25:35;1.00;99.90
14095;DHT22;18096;48.142;16.290;2022-12-18T00:28:03;0.90;99.90
14095;DHT22;18096;48.142;16.290;2022-12-18T00:30:31;0.90;99.90
14095;DHT22;18096;48.142;16.290;2022-12-18T00:32:57;0.90;99.90
14095;DHT22;18096;48.142;16.290;2022-12-18T00:35:23;0.90;99.90
14095;DHT22;18096;48.142;16.290;2022-12-18T00:37:48;0.90;99.90
14095;DHT22;18096;48.142;16.290;2022-12-18T00:40:14;0.90;99.90
14095;DHT22;18096;48.142;16.290;2022-12-18T00:42:40;0.90;99.90
14095;DHT22;18096;48.142;16.290;2022-12-18T00:45:30;0.90;99.90
14095;DHT22;18096;48.142;16.290;2022-12-18T00:47:56;0.80;99.90
14095;DHT22;18096;48.142;16.290;2022-12-18T00:50:23;0.70;99.90
14095;DHT22;18096;48.142;16.290;2022-12-18T00:52:49;0.80;99.90
14095;DHT22;18096;48.142;16.290;2022-12-18T00:55:16;0.70;99.90
14095;DHT22;18096;48.142;16.290;2022-12-18T00:57:42;0.70;99.90
14095;DHT22;18096;48.142;16.290;2022-12-18T01:00:10;0.60;99.90
14095;DHT22;18096;48.142;16.290;2022-12-18T01:02:36;0.60;99.90
14095;DHT22;18096;48.142;16.290;2022-12-18T01:05:02;0.60;99.90
14095;DHT22;18096;48.142;16.290;2022-12-18T01:07:27;0.60;99.90
14095;DHT22;18096;48.142;16.290;2022-12-18T01:09:53;0.60;99.90
14095;DHT22;18096;48.142;16.290;2022-12-18T01:12:19;0.50;99.90
14095;DHT22;18096;48.142;16.290;2022-12-18T01:14:44;0.60;99.90
14095;DHT22;18096;48.142;16.290;2022-12-18T01:17:10;0.60;99.90
14095;DHT22;18096;48.142;16.290;2022-12-18T01:19:35;0.60;99.90
14095;DHT22;18096;48.142;16.290;2022-12-18T01:22:01;0.70;99.90
14095;DHT22;18096;48.142;16.290;2022-12-18T01:24:27;0.50;99.90
14095;DHT22;18096;48.142;16.290;2022-12-18T01:26:52;0.50;99.90
14095;DHT22;18096;48.142;16.290;2022-12-18T01:29:18;0.40;99.90
14095;DHT22;18096;48.142;16.290;2022-12-18T01:31:44;0.30;99.90
14095;DHT22;18096;48.142;16.290;2022-12-18T01:34:09;0.30;99.90
14095;DHT22;18096;48.142;16.290;2022-12-18T01:36:37;0.20;99.90
14095;DHT22;18096;48.142;16.290;2022-12-18T01:39:15;0.20;99.90
14095;DHT22;18096;48.142;16.290;2022-12-18T01:41:41;0.20;99.90
14095;DHT22;18096;48.142;16.290;2022-12-18T01:47:46;0.10;99.90
14095;DHT22;18096;48.142;16.290;2022-12-18T01:50:38;0.10;99.90
14095;DHT22;18096;48.142;16.290;2022-12-18T01:53:18;0.00;99.90
14095;DHT22;18096;48.142;16.290;2022-12-18T01:55:55;0.00;99.90
14095;DHT22;18096;48.142;16.290;2022-12-18T01:58:54;0.00;99.90
14095;DHT22;18096;48.142;16.290;2022-12-18T02:01:23;-0.10;99.90
14095;DHT22;18096;48.142;16.290;2022-12-18T02:03:49;-0.10;99.90
14095;DHT22;18096;48.142;16.290;2022-12-18T02:14:18;-0.20;99.90
14095;DHT22;18096;48.142;16.290;2022-12-18T02:22:44;-0.30;99.90
14095;DHT22;18096;48.142;16.290;2022-12-18T02:28:09;-0.40;99.90
14095;DHT22;18096;48.142;16.290;2022-12-18T02:30:37;-0.40;99.90
14095;DHT22;18096;48.142;16.290;2022-12-18T02:33:07;-0.40;99.90
14095;DHT22;18096;48.142;16.290;2022-12-18T02:35:34;-0.40;99.90
14095;DHT22;18096;48.142;16.290;2022-12-18T02:38:02;-0.50;99.90
14095;DHT22;18096;48.142;16.290;2022-12-18T02:40:29;-0.50;99.90
14095;DHT22;18096;48.142;16.290;2022-12-18T02:42:55;-0.60;99.90
14095;DHT22;18096;48.142;16.290;2022-12-18T02:45:27;-0.60;99.90
14095;DHT22;18096;48.142;16.290;2022-12-18T02:47:52;-0.60;99.90
14095;DHT22;18096;48.142;16.290;2022-12-18T02:50:36;-0.60;99.90
14095;DHT22;18096;48.142;16.290;2022-12-18T03:01:25;-0.70;99.90
14095;DHT22;18096;48.142;16.290;2022-12-18T03:03:58;-0.70;99.90
14095;DHT22;18096;48.142;16.290;2022-12-18T03:06:32;-0.70;99.90
14095;DHT22;18096;48.142;16.290;2022-12-18T03:09:00;-0.70;99.90
14095;DHT22;18096;48.142;16.290;2022-12-18T03:11:29;-0.80;99.90
14095;DHT22;18096;48.142;16.290;2022-12-18T03:14:16;-0.80;99.90
14095;DHT22;18096;48.142;16.290;2022-12-18T03:16:43;-0.80;99.90
14095;DHT22;18096;48.142;16.290;2022-12-18T03:19:15;-0.80;99.90
14095;DHT22;18096;48.142;16.290;2022-12-18T03:21:47;-0.80;99.90
14095;DHT22;18096;48.142;16.290;2022-12-18T03:24:15;-0.90;99.90
14095;DHT22;18096;48.142;16.290;2022-12-18T03:26:45;-0.90;99.90
14095;DHT22;18096;48.142;16.290;2022-12-18T03:29:38;-0.90;99.90
14095;DHT22;18096;48.142;16.290;2022-12-18T03:32:09;-0.80;99.90
14095;DHT22;18096;48.142;16.290;2022-12-18T03:34:38;-0.90;99.90
14095;DHT22;18096;48.142;16.290;2022-12-18T03:37:06;-0.90;99.90
14095;DHT22;18096;48.142;16.290;2022-12-18T03:39:33;-0.90;99.90
14095;DHT22;18096;48.142;16.290;2022-12-18T03:44:52;-1.00;99.90
14095;DHT22;18096;48.142;16.290;2022-12-18T03:47:29;-1.00;99.90
14095;DHT22;18096;48.142;16.290;2022-12-18T03:50:15;-1.10;99.90
14095;DHT22;18096;48.142;16.290;2022-12-18T03:52:53;-1.10;99.90
14095;DHT22;18096;48.142;16.290;2022-12-18T03:55:21;-1.20;99.90
14095;DHT22;18096;48.142;16.290;2022-12-18T03:57:48;-1.20;99.90
14095;DHT22;18096;48.142;16.290;2022-12-18T04:00:17;-1.20;99.90
14095;DHT22;18096;48.142;16.290;2022-12-18T04:02:46;-1.20;99.90
14095;DHT22;18096;48.142;16.290;2022-12-18T04:05:14;-1.20;99.90
14095;DHT22;18096;48.142;16.290;2022-12-18T04:07:41;-1.20;99.90
14095;DHT22;18096;48.142;16.290;2022-12-18T04:10:09;-1.20;99.90
14095;DHT22;18096;48.142;16.290;2022-12-18T04:12:37;-1.20;99.90
14095;DHT22;18096;48.142;16.290;2022-12-18T04:15:04;-1.20;99.90
14095;DHT22;18096;48.142;16.290;2022-12-18T04:17:29;-1.20;99.90
14095;DHT22;18096;48.142;16.290;2022-12-18T04:19:55;-1.30;99.90
14095;DHT22;18096;48.142;16.290;2022-12-18T04:22:21;-1.40;99.90
14095;DHT22;18096;48.142;16.290;2022-12-18T04:24:47;-1.40;99.90
14095;DHT22;18096;48.142;16.290;2022-12-18T04:27:13;-1.40;99.90
14095;DHT22;18096;48.142;16.290;2022-12-18T04:29:39;-1.40;99.90
14095;DHT22;18096;48.142;16.290;2022-12-18T04:32:05;-1.50;99.90
14095;DHT22;18096;48.142;16.290;2022-12-18T04:34:30;-1.50;99.90
14095;DHT22;18096;48.142;16.290;2022-12-18T04:36:56;-1.50;99.90
14095;DHT22;18096;48.142;16.290;2022-12-18T04:39:22;-1.40;99.90
14095;DHT22;18096;48.142;16.290;2022-12-18T04:41:47;-1.50;99.90
14095;DHT22;18096;48.142;16.290;2022-12-18T04:44:13;-1.50;99.90
14095;DHT22;18096;48.142;16.290;2022-12-18T04:46:39;-1.30;99.90
14095;DHT22;18096;48.142;16.290;2022-12-18T04:49:05;-1.40;99.90
14095;DHT22;18096;48.142;16.290;2022-12-18T04:51:30;-1.50;99.90
14095;DHT22;18096;48.142;16.290;2022-12-18T04:53:56;-1.60;99.90
14095;DHT22;18096;48.142;16.290;2022-12-18T04:56:22;-1.70;99.90
14095;DHT22;18096;48.142;16.290;2022-12-18T04:58:48;-1.70;99.90
14095;DHT22;18096;48.142;16.290;2022-12-18T05:01:16;-1.70;99.90
14095;DHT22;18096;48.142;16.290;2022-12-18T05:03:42;-1.70;99.90
14095;DHT22;18096;48.142;16.290;2022-12-18T05:06:08;-1.70;99.90
14095;DHT22;18096;48.142;16.290;2022-12-18T05:08:34;-1.70;99.90
14095;DHT22;18096;48.142;16.290;2022-12-18T05:11:05;-1.70;99.90
14095;DHT22;18096;48.142;16.290;2022-12-18T05:13:32;-1.70;99.90
14095;DHT22;18096;48.142;16.290;2022-12-18T05:15:58;-1.80;99.90
14095;DHT22;18096;48.142;16.290;2022-12-18T05:18:24;-1.80;99.90
14095;DHT22;18096;48.142;16.290;2022-12-18T05:20:50;-1.80;99.90
14095;DHT22;18096;48.142;16.290;2022-12-18T05:23:17;-1.80;99.90
14095;DHT22;18096;48.142;16.290;2022-12-18T05:25:52;-1.80;99.90
14095;DHT22;18096;48.142;16.290;2022-12-18T05:28:18;-1.90;99.90
14095;DHT22;18096;48.142;16.290;2022-12-18T05:30:48;-1.80;99.90
14095;DHT22;18096;48.142;16.290;2022-12-18T05:33:14;-1.90;99.90
14095;DHT22;18096;48.142;16.290;2022-12-18T05:35:40;-1.90;99.90
14095;DHT22;18096;48.142;16.290;2022-12-18T05:38:06;-1.90;99.90
14095;DHT22;18096;48.142;16.290;2022-12-18T05:40:31;-1.90;99.90
14095;DHT22;18096;48.142;16.290;2022-12-18T05:42:57;-2.00;99.90
14095;DHT22;18096;48.142;16.290;2022-12-18T05:45:23;-2.10;99.90
14095;DHT22;18096;48.142;16.290;2022-12-18T05:47:48;-2.10;99.90
14095;DHT22;18096;48.142;16.290;2022-12-18T05:50:14;-2.10;99.90
14095;DHT22;18096;48.142;16.290;2022-12-18T05:52:40;-2.20;99.90
14095;DHT22;18096;48.142;16.290;2022-12-18T05:55:05;-2.20;99.90
14095;DHT22;18096;48.142;16.290;2022-12-18T05:57:31;-2.20;99.90
14095;DHT22;18096;48.142;16.290;2022-12-18T05:59:57;-2.20;99.90
14095;DHT22;18096;48.142;16.290;2022-12-18T06:02:22;-2.20;99.90
14095;DHT22;18096;48.142;16.290;2022-12-18T06:04:48;-2.10;99.90
14095;DHT22;18096;48.142;16.290;2022-12-18T06:07:14;-2.00;99.90
14095;DHT22;18096;48.142;16.290;2022-12-18T06:09:39;-2.10;99.90
14095;DHT22;18096;48.142;16.290;2022-12-18T06:12:05;-2.20;99.90
14095;DHT22;18096;48.142;16.290;2022-12-18T06:14:31;-2.20;99.90
14095;DHT22;18096;48.142;16.290;2022-12-18T06:16:57;-2.20;99.90
14095;DHT22;18096;48.142;16.290;2022-12-18T06:19:22;-2.30;99.90
14095;DHT22;18096;48.142;16.290;2022-12-18T06:21:48;-2.30;99.90
14095;DHT22;18096;48.142;16.290;2022-12-18T06:24:15;-2.40;99.90
14095;DHT22;18096;48.142;16.290;2022-12-18T06:26:40;-2.40;99.90
14095;DHT22;18096;48.142;16.290;2022-12-18T06:29:06;-2.50;99.90
14095;DHT22;18096;48.142;16.290;2022-12-18T06:31:32;-2.40;99.90
14095;DHT22;18096;48.142;16.290;2022-12-18T06:33:58;-2.40;99.90
14095;DHT22;18096;48.142;16.290;2022-12-18T06:36:23;-2.30;99.90
14095;DHT22;18096;48.142;16.290;2022-12-18T06:38:49;-2.30;99.90
14095;DHT22;18096;48.142;16.290;2022-12-18T06:41:20;-2.40;99.90
14095;DHT22;18096;48.142;16.290;2022-12-18T06:43:46;-2.40;99.90
14095;DHT22;18096;48.142;16.290;2022-12-18T06:46:12;-2.40;99.90
14095;DHT22;18096;48.142;16.290;2022-12-18T06:48:38;-2.50;99.90
14095;DHT22;18096;48.142;16.290;2022-12-18T06:51:04;-2.60;99.90
14095;DHT22;18096;48.142;16.290;2022-12-18T06:53:31;-2.50;99.90
14095;DHT22;18096;48.142;16.290;2022-12-18T06:56:05;-2.60;99.90
14095;DHT22;18096;48.142;16.290;2022-12-18T06:58:32;-2.60;99.90
14095;DHT22;18096;48.142;16.290;2022-12-18T07:01:01;-2.60;99.90
14095;DHT22;18096;48.142;16.290;2022-12-18T07:03:29;-2.60;99.90
14095;DHT22;18096;48.142;16.290;2022-12-18T07:05:55;-2.70;99.90
14095;DHT22;18096;48.142;16.290;2022-12-18T07:08:20;-2.70;99.90
14095;DHT22;18096;48.142;16.290;2022-12-18T07:10:46;-2.70;99.90
14095;DHT22;18096;48.142;16.290;2022-12-18T07:13:14;-2.70;99.90
14095;DHT22;18096;48.142;16.290;2022-12-18T07:15:40;-2.70;99.90
14095;DHT22;18096;48.142;16.290;2022-12-18T07:18:06;-2.70;99.90
14095;DHT22;18096;48.142;16.290;2022-12-18T07:20:32;-2.70;99.90
14095;DHT22;18096;48.142;16.290;2022-12-18T07:23:02;-2.70;99.90
14095;DHT22;18096;48.142;16.290;2022-12-18T07:25:28;-2.70;99.90
14095;DHT22;18096;48.142;16.290;2022-12-18T07:27:54;-2.70;99.90
14095;DHT22;18096;48.142;16.290;2022-12-18T07:30:20;-2.70;99.90
14095;DHT22;18096;48.142;16.290;2022-12-18T07:32:45;-2.70;99.90
14095;DHT22;18096;48.142;16.290;2022-12-18T07:35:11;-2.60;99.90
14095;DHT22;18096;48.142;16.290;2022-12-18T07:37:37;-2.60;99.90
14095;DHT22;18096;48.142;16.290;2022-12-18T07:40:02;-2.60;99.90
14095;DHT22;18096;48.142;16.290;2022-12-18T07:42:28;-2.60;99.90
14095;DHT22;18096;48.142;16.290;2022-12-18T07:44:59;-2.50;99.90
14095;DHT22;18096;48.142;16.290;2022-12-18T07:47:25;-2.50;99.90
14095;DHT22;18096;48.142;16.290;2022-12-18T07:49:51;-2.40;99.90
14095;DHT22;18096;48.142;16.290;2022-12-18T07:52:17;-2.40;99.90
14095;DHT22;18096;48.142;16.290;2022-12-18T07:54:43;-2.30;99.90
14095;DHT22;18096;48.142;16.290;2022-12-18T07:57:08;-2.30;99.90
14095;DHT22;18096;48.142;16.290;2022-12-18T07:59:34;-2.30;99.90
14095;DHT22;18096;48.142;16.290;2022-12-18T08:02:00;-2.20;99.90
14095;DHT22;18096;48.142;16.290;2022-12-18T08:04:26;-2.10;99.90
14095;DHT22;18096;48.142;16.290;2022-12-18T08:06:52;-1.90;99.90
14095;DHT22;18096;48.142;16.290;2022-12-18T08:09:18;-2.00;99.90
14095;DHT22;18096;48.142;16.290;2022-12-18T08:11:44;-2.00;99.90
14095;DHT22;18096;48.142;16.290;2022-12-18T08:14:10;-2.00;99.90
14095;DHT22;18096;48.142;16.290;2022-12-18T08:16:36;-2.00;99.90
14095;DHT22;18096;48.142;16.290;2022-12-18T08:19:02;-2.00;99.90
14095;DHT22;18096;48.142;16.290;2022-12-18T08:21:30;-2.00;99.90
14095;DHT22;18096;48.142;16.290;2022-12-18T08:23:58;-1.90;99.90
14095;DHT22;18096;48.142;16.290;2022-12-18T08:26:26;-1.90;99.90
14095;DHT22;18096;48.142;16.290;2022-12-18T08:28:57;-1.70;99.90
14095;DHT22;18096;48.142;16.290;2022-12-18T08:31:24;-1.80;99.90
14095;DHT22;18096;48.142;16.290;2022-12-18T08:33:51;-1.70;99.90
14095;DHT22;18096;48.142;16.290;2022-12-18T08:36:18;-1.70;99.90
14095;DHT22;18096;48.142;16.290;2022-12-18T08:38:44;-1.50;99.90
14095;DHT22;18096;48.142;16.290;2022-12-18T08:41:12;-1.50;99.90
14095;DHT22;18096;48.142;16.290;2022-12-18T08:43:38;-1.30;99.90
14095;DHT22;18096;48.142;16.290;2022-12-18T08:46:24;-1.20;99.90
14095;DHT22;18096;48.142;16.290;2022-12-18T08:48:51;-1.20;99.90
14095;DHT22;18096;48.142;16.290;2022-12-18T08:51:18;-1.10;99.90
14095;DHT22;18096;48.142;16.290;2022-12-18T08:53:44;-1.10;99.90
14095;DHT22;18096;48.142;16.290;2022-12-18T08:56:11;-1.00;99.90
14095;DHT22;18096;48.142;16.290;2022-12-18T08:58:37;-1.00;99.90
14095;DHT22;18096;48.142;16.290;2022-12-18T09:01:04;-1.00;99.90
14095;DHT22;18096;48.142;16.290;2022-12-18T09:03:30;-1.00;99.90
14095;DHT22;18096;48.142;16.290;2022-12-18T09:05:56;-0.90;99.90
14095;DHT22;18096;48.142;16.290;2022-12-18T09:08:22;-0.80;99.90
14095;DHT22;18096;48.142;16.290;2022-12-18T09:10:49;-0.70;99.90
14095;DHT22;18096;48.142;16.290;2022-12-18T09:13:16;-0.70;99.90
14095;DHT22;18096;48.142;16.290;2022-12-18T09:15:43;-0.60;99.90
14095;DHT22;18096;48.142;16.290;2022-12-18T09:18:11;-0.60;99.90
14095;DHT22;18096;48.142;16.290;2022-12-18T09:20:37;-0.50;99.90
14095;DHT22;18096;48.142;16.290;2022-12-18T09:23:03;-0.50;99.90
14095;DHT22;18096;48.142;16.290;2022-12-18T09:25:30;-0.50;99.90
14095;DHT22;18096;48.142;16.290;2022-12-18T09:28:09;-0.50;99.90
14095;DHT22;18096;48.142;16.290;2022-12-18T09:30:41;-0.50;99.90
14095;DHT22;18096;48.142;16.290;2022-12-18T09:33:07;-0.40;99.90
14095;DHT22;18096;48.142;16.290;2022-12-18T09:35:35;-0.40;99.90
14095;DHT22;18096;48.142;16.290;2022-12-18T09:38:01;-0.40;99.90
14095;DHT22;18096;48.142;16.290;2022-12-18T09:40:32;-0.40;99.90
14095;DHT22;18096;48.142;16.290;2022-12-18T09:43:02;-0.30;99.90
14095;DHT22;18096;48.142;16.290;2022-12-18T09:45:33;-0.30;99.90
14095;DHT22;18096;48.142;16.290;2022-12-18T09:48:04;-0.40;99.90
14095;DHT22;18096;48.142;16.290;2022-12-18T09:50:37;-0.40;99.90
14095;DHT22;18096;48.142;16.290;2022-12-18T09:53:14;-0.40;99.90
14095;DHT22;18096;48.142;16.290;2022-12-18T09:55:43;-0.20;99.90
14095;DHT22;18096;48.142;16.290;2022-12-18T10:00:35;-0.20;99.90
14095;DHT22;18096;48.142;16.290;2022-12-18T10:03:09;-0.20;99.90
14095;DHT22;18096;48.142;16.290;2022-12-18T10:08:30;-0.10;99.90
14095;DHT22;18096;48.142;16.290;2022-12-18T10:20:41;-0.10;99.90
14095;DHT22;18096;48.142;16.290;2022-12-18T10:23:15;-0.30;99.90
14095;DHT22;18096;48.142;16.290;2022-12-18T10:26:08;-0.10;99.90
14095;DHT22;18096;48.142;16.290;2022-12-18T10:28:39;-0.10;99.90
14095;DHT22;18096;48.142;16.290;2022-12-18T10:31:26;-0.20;99.90
14095;DHT22;18096;48.142;16.290;2022-12-18T10:33:54;0.00;99.90
14095;DHT22;18096;48.142;16.290;2022-12-18T10:36:20;-0.10;99.90
14095;DHT22;18096;48.142;16.290;2022-12-18T10:38:46;0.00;99.90
14095;DHT22;18096;48.142;16.290;2022-12-18T10:43:44;0.00;99.90
14095;DHT22;18096;48.142;16.290;2022-12-18T10:46:14;0.00;99.90
14095;DHT22;18096;48.142;16.290;2022-12-18T10:51:27;0.00;99.90
14095;DHT22;18096;48.142;16.290;2022-12-18T10:53:56;0.00;99.90
14095;DHT22;18096;48.142;16.290;2022-12-18T10:56:24;-0.10;99.90
14095;DHT22;18096;48.142;16.290;2022-12-18T10:59:06;-0.10;99.90
14095;DHT22;18096;48.142;16.290;2022-12-18T11:04:27;0.00;99.90
14095;DHT22;18096;48.142;16.290;2022-12-18T11:07:06;-0.10;99.90
14095;DHT22;18096;48.142;16.290;2022-12-18T11:09:35;-0.20;99.90
14095;DHT22;18096;48.142;16.290;2022-12-18T11:12:15;-0.20;99.90
14095;DHT22;18096;48.142;16.290;2022-12-18T11:17:33;-0.20;99.90
14095;DHT22;18096;48.142;16.290;2022-12-18T11:20:04;-0.30;99.90
14095;DHT22;18096;48.142;16.290;2022-12-18T11:22:33;-0.30;99.90
14095;DHT22;18096;48.142;16.290;2022-12-18T11:27:41;-0.30;99.90
14095;DHT22;18096;48.142;16.290;2022-12-18T11:32:59;-0.20;99.90
14095;DHT22;18096;48.142;16.290;2022-12-18T11:35:52;-0.10;99.90
14095;DHT22;18096;48.142;16.290;2022-12-18T11:38:32;0.00;99.90
14095;DHT22;18096;48.142;16.290;2022-12-18T11:43:53;-0.10;99.90
14095;DHT22;18096;48.142;16.290;2022-12-18T11:46:34;-0.10;99.90
14095;DHT22;18096;48.142;16.290;2022-12-18T11:49:14;-0.10;99.90
14095;DHT22;18096;48.142;16.290;2022-12-18T11:54:29;0.00;99.90
14095;DHT22;18096;48.142;16.290;2022-12-18T11:57:14;0.10;99.90
14095;DHT22;18096;48.142;16.290;2022-12-18T12:00:18;0.00;99.90
14095;DHT22;18096;48.142;16.290;2022-12-18T12:11:16;0.10;99.90
14095;DHT22;18096;48.142;16.290;2022-12-18T12:16:34;0.20;99.90
14095;DHT22;18096;48.142;16.290;2022-12-18T12:19:36;0.20;99.90
14095;DHT22;18096;48.142;16.290;2022-12-18T12:38:59;0.10;99.90
14095;DHT22;18096;48.142;16.290;2022-12-18T12:41:30;0.10;99.90
14095;DHT22;18096;48.142;16.290;2022-12-18T12:44:25;0.10;99.90
14095;DHT22;18096;48.142;16.290;2022-12-18T12:46:56;0.10;99.90
14095;DHT22;18096;48.142;16.290;2022-12-18T12:49:29;0.10;99.90
14095;DHT22;18096;48.142;16.290;2022-12-18T12:52:14;0.10;99.90
14095;DHT22;18096;48.142;16.290;2022-12-18T12:54:42;0.10;99.90
14095;DHT22;18096;48.142;16.290;2022-12-18T12:57:23;0.00;99.90
14095;DHT22;18096;48.142;16.290;2022-12-18T13:07:55;0.00;99.90
14095;DHT22;18096;48.142;16.290;2022-12-18T13:10:25;0.00;99.90
14095;DHT22;18096;48.142;16.290;2022-12-18T13:23:36;0.00;99.90
14095;DHT22;18096;48.142;16.290;2022-12-18T13:34:20;0.30;99.90
14095;DHT22;18096;48.142;16.290;2022-12-18T13:36:46;0.30;99.90
14095;DHT22;18096;48.142;16.290;2022-12-18T13:41:48;0.20;99.90
14095;DHT22;18096;48.142;16.290;2022-12-18T13:46:50;0.20;99.90
14095;DHT22;18096;48.142;16.290;2022-12-18T13:51:50;0.10;99.90
14095;DHT22;18096;48.142;16.290;2022-12-18T13:54:30;0.20;99.90
14095;DHT22;18096;48.142;16.290;2022-12-18T13:56:57;0.10;99.90
14095;DHT22;18096;48.142;16.290;2022-12-18T13:59:43;0.10;99.90
14095;DHT22;18096;48.142;16.290;2022-12-18T14:02:15;0.20;99.90
14095;DHT22;18096;48.142;16.290;2022-12-18T14:04:44;0.10;99.90
14095;DHT22;18096;48.142;16.290;2022-12-18T14:07:16;0.10;99.90
14095;DHT22;18096;48.142;16.290;2022-12-18T14:09:49;0.10;99.90
14095;DHT22;18096;48.142;16.290;2022-12-18T14:12:18;0.10;99.90
14095;DHT22;18096;48.142;16.290;2022-12-18T14:15:05;0.10;99.90
14095;DHT22;18096;48.142;16.290;2022-12-18T14:17:32;0.10;99.90
14095;DHT22;18096;48.142;16.290;2022-12-18T14:19:58;0.10;99.90
14095;DHT22;18096;48.142;16.290;2022-12-18T14:22:25;0.10;99.90
14095;DHT22;18096;48.142;16.290;2022-12-18T14:30:43;0.10;99.90
14095;DHT22;18096;48.142;16.290;2022-12-18T14:33:11;0.10;99.90
14095;DHT22;18096;48.142;16.290;2022-12-18T14:35:40;0.10;99.90
14095;DHT22;18096;48.142;16.290;2022-12-18T14:41:01;0.20;99.90
14095;DHT22;18096;48.142;16.290;2022-12-18T14:43:30;0.10;99.90
14095;DHT22;18096;48.142;16.290;2022-12-18T14:45:56;0.10;99.90
14095;DHT22;18096;48.142;16.290;2022-12-18T14:53:39;0.00;99.90
14095;DHT22;18096;48.142;16.290;2022-12-18T14:56:18;0.00;99.90
14095;DHT22;18096;48.142;16.290;2022-12-18T14:58:47;0.00;99.90
14095;DHT22;18096;48.142;16.290;2022-12-18T15:01:26;-0.10;99.90
14095;DHT22;18096;48.142;16.290;2022-12-18T15:03:54;0.00;99.90
14095;DHT22;18096;48.142;16.290;2022-12-18T15:08:56;0.00;99.90
14095;DHT22;18096;48.142;16.290;2022-12-18T15:12:00;0.00;99.90
14095;DHT22;18096;48.142;16.290;2022-12-18T15:14:37;0.00;99.90
14095;DHT22;18096;48.142;16.290;2022-12-18T15:17:13;-0.10;99.90
14095;DHT22;18096;48.142;16.290;2022-12-18T15:19:42;0.00;99.90
14095;DHT22;18096;48.142;16.290;2022-12-18T15:22:29;0.00;99.90
14095;DHT22;18096;48.142;16.290;2022-12-18T15:24:57;-0.10;99.90
14095;DHT22;18096;48.142;16.290;2022-12-18T15:32:39;0.00;99.90
14095;DHT22;18096;48.142;16.290;2022-12-18T15:37:40;-0.10;99.90
14095;DHT22;18096;48.142;16.290;2022-12-18T15:40:29;-0.10;99.90
14095;DHT22;18096;48.142;16.290;2022-12-18T15:42:54;-0.10;99.90
14095;DHT22;18096;48.142;16.290;2022-12-18T15:45:39;-0.10;99.90
14095;DHT22;18096;48.142;16.290;2022-12-18T15:48:22;-0.20;99.90
14095;DHT22;18096;48.142;16.290;2022-12-18T15:50:55;-0.20;99.90
14095;DHT22;18096;48.142;16.290;2022-12-18T15:53:23;-0.30;99.90
14095;DHT22;18096;48.142;16.290;2022-12-18T15:55:50;-0.30;99.90
14095;DHT22;18096;48.142;16.290;2022-12-18T15:58:35;-0.30;99.90
14095;DHT22;18096;48.142;16.290;2022-12-18T16:01:02;-0.20;99.90
14095;DHT22;18096;48.142;16.290;2022-12-18T16:03:29;-0.20;99.90
14095;DHT22;18096;48.142;16.290;2022-12-18T16:05:55;-0.20;99.90
14095;DHT22;18096;48.142;16.290;2022-12-18T16:08:22;-0.10;99.90
14095;DHT22;18096;48.142;16.290;2022-12-18T16:10:50;-0.10;99.90
14095;DHT22;18096;48.142;16.290;2022-12-18T16:13:19;-0.20;99.90
14095;DHT22;18096;48.142;16.290;2022-12-18T16:15:45;-0.20;99.90
14095;DHT22;18096;48.142;16.290;2022-12-18T16:18:11;-0.20;99.90
14095;DHT22;18096;48.142;16.290;2022-12-18T16:20:38;-0.10;99.90
14095;DHT22;18096;48.142;16.290;2022-12-18T16:23:04;-0.10;99.90
14095;DHT22;18096;48.142;16.290;2022-12-18T16:25:30;-0.10;99.90
14095;DHT22;18096;48.142;16.290;2022-12-18T16:27:57;-0.10;99.90
14095;DHT22;18096;48.142;16.290;2022-12-18T16:30:30;-0.10;99.90
14095;DHT22;18096;48.142;16.290;2022-12-18T16:32:57;-0.10;99.90
14095;DHT22;18096;48.142;16.290;2022-12-18T16:35:24;-0.10;99.90
14095;DHT22;18096;48.142;16.290;2022-12-18T16:37:51;0.00;99.90
14095;DHT22;18096;48.142;16.290;2022-12-18T16:40:18;0.10;99.90
14095;DHT22;18096;48.142;16.290;2022-12-18T16:42:45;0.00;99.90
14095;DHT22;18096;48.142;16.290;2022-12-18T16:45:15;0.00;99.90
14095;DHT22;18096;48.142;16.290;2022-12-18T16:47:42;0.00;99.90
14095;DHT22;18096;48.142;16.290;2022-12-18T16:50:09;0.10;99.90
14095;DHT22;18096;48.142;16.290;2022-12-18T16:52:35;0.10;99.90
14095;DHT22;18096;48.142;16.290;2022-12-18T16:55:02;0.10;99.90
14095;DHT22;18096;48.142;16.290;2022-12-18T16:57:28;0.20;99.90
14095;DHT22;18096;48.142;16.290;2022-12-18T16:59:54;0.10;99.90
14095;DHT22;18096;48.142;16.290;2022-12-18T17:02:25;0.20;99.90
14095;DHT22;18096;48.142;16.290;2022-12-18T17:04:54;0.20;99.90
14095;DHT22;18096;48.142;16.290;2022-12-18T17:07:21;0.20;99.90
14095;DHT22;18096;48.142;16.290;2022-12-18T17:09:48;0.20;99.90
14095;DHT22;18096;48.142;16.290;2022-12-18T17:12:16;0.20;99.90
14095;DHT22;18096;48.142;16.290;2022-12-18T17:14:42;0.20;99.90
14095;DHT22;18096;48.142;16.290;2022-12-18T17:17:08;0.10;99.90
14095;DHT22;18096;48.142;16.290;2022-12-18T17:19:35;0.20;99.90
14095;DHT22;18096;48.142;16.290;2022-12-18T17:22:01;0.20;99.90
14095;DHT22;18096;48.142;16.290;2022-12-18T17:24:27;0.20;99.90
14095;DHT22;18096;48.142;16.290;2022-12-18T17:26:53;0.20;99.90
14095;DHT22;18096;48.142;16.290;2022-12-18T17:29:20;0.20;99.90
14095;DHT22;18096;48.142;16.290;2022-12-18T17:31:46;0.20;99.90
14095;DHT22;18096;48.142;16.290;2022-12-18T17:34:14;0.20;99.90
14095;DHT22;18096;48.142;16.290;2022-12-18T17:36:41;0.10;99.90
14095;DHT22;18096;48.142;16.290;2022-12-18T17:39:07;0.20;99.90
14095;DHT22;18096;48.142;16.290;2022-12-18T17:41:35;0.10;99.90
14095;DHT22;18096;48.142;16.290;2022-12-18T17:44:04;0.20;99.90
14095;DHT22;18096;48.142;16.290;2022-12-18T17:46:32;0.20;99.90
14095;DHT22;18096;48.142;16.290;2022-12-18T17:48:59;0.20;99.90
14095;DHT22;18096;48.142;16.290;2022-12-18T17:51:27;0.20;99.90
14095;DHT22;18096;48.142;16.290;2022-12-18T17:53:53;0.30;99.90
14095;DHT22;18096;48.142;16.290;2022-12-18T17:56:21;0.30;99.90
14095;DHT22;18096;48.142;16.290;2022-12-18T17:58:48;0.30;99.90
14095;DHT22;18096;48.142;16.290;2022-12-18T18:01:17;0.30;99.90
14095;DHT22;18096;48.142;16.290;2022-12-18T18:03:45;0.40;99.90
14095;DHT22;18096;48.142;16.290;2022-12-18T18:06:11;0.40;99.90
14095;DHT22;18096;48.142;16.290;2022-12-18T18:08:38;0.40;99.90
14095;DHT22;18096;48.142;16.290;2022-12-18T18:11:13;0.40;99.90